sensor_id;sensor_type;location;lat;lon;timestamp;temperature;humidity
4813;DHT22;2420;51.202;8.698;2023-05-27T00:01:40;9.20;1.00
4813;DHT22;2420;51.202;8.698;2023-05-27T00:04:06;9.20;1.00
4813;DHT22;2420;51.202;8.698;2023-05-27T00:06:31;9.20;1.00
4813;DHT22;2420;51.202;8.698;2023-05-27T00:08:57;9.30;1.00
4813;DHT22;2420;51.202;8.698;2023-05-27T00:11:22;9.30;1.00
4813;DHT22;2420;51.202;8.698;2023-05-27T00:13:48;9.30;1.00
4813;DHT22;2420;51.202;8.698;2023-05-27T00:16:14;9.30;1.00
4813;DHT22;2420;51.202;8.698;2023-05-27T00:18:39;9.30;1.00
4813;DHT22;2420;51.202;8.698;2023-05-27T00:21:06;9.20;1.00
4813;DHT22;2420;51.202;8.698;2023-05-27T00:23:31;9.10;1.00
4813;DHT22;2420;51.202;8.698;2023-05-27T00:25:57;9.10;1.00
4813;DHT22;2420;51.202;8.698;2023-05-27T00:28:22;9.10;1.00
4813;DHT22;2420;51.202;8.698;2023-05-27T00:30:48;9.00;1.00
4813;DHT22;2420;51.202;8.698;2023-05-27T00:33:13;9.00;1.00
4813;DHT22;2420;51.202;8.698;2023-05-27T00:35:39;9.00;1.00
4813;DHT22;2420;51.202;8.698;2023-05-27T00:38:05;9.00;1.00
4813;DHT22;2420;51.202;8.698;2023-05-27T00:40:31;9.00;1.00
4813;DHT22;2420;51.202;8.698;2023-05-27T00:42:59;9.10;1.00
4813;DHT22;2420;51.202;8.698;2023-05-27T00:45:25;9.00;1.00
4813;DHT22;2420;51.202;8.698;2023-05-27T00:47:51;8.90;1.00
4813;DHT22;2420;51.202;8.698;2023-05-27T00:50:17;8.80;1.00
4813;DHT22;2420;51.202;8.698;2023-05-27T00:52:43;8.80;1.00
4813;DHT22;2420;51.202;8.698;2023-05-27T00:55:09;8.80;1.00
4813;DHT22;2420;51.202;8.698;2023-05-27T00:57:35;8.70;1.00
4813;DHT22;2420;51.202;8.698;2023-05-27T01:00:01;8.70;1.00
4813;DHT22;2420;51.202;8.698;2023-05-27T01:02:27;8.70;1.00
4813;DHT22;2420;51.202;8.698;2023-05-27T01:04:53;8.70;1.00
4813;DHT22;2420;51.202;8.698;2023-05-27T01:07:22;8.60;1.00
4813;DHT22;2420;51.202;8.698;2023-05-27T01:10:23;8.60;1.00
4813;DHT22;2420;51.202;8.698;2023-05-27T01:12:55;8.60;1.00
4813;DHT22;2420;51.202;8.698;2023-05-27T01:15:24;8.50;1.00
4813;DHT22;2420;51.202;8.698;2023-05-27T01:17:56;8.50;1.00
4813;DHT22;2420;51.202;8.698;2023-05-27T01:20:22;8.50;1.00
4813;DHT22;2420;51.202;8.698;2023-05-27T01:22:48;8.50;1.00
4813;DHT22;2420;51.202;8.698;2023-05-27T01:25:18;8.60;1.00
4813;DHT22;2420;51.202;8.698;2023-05-27T01:27:45;8.50;1.00
4813;DHT22;2420;51.202;8.698;2023-05-27T01:30:11;8.50;1.00
4813;DHT22;2420;51.202;8.698;2023-05-27T01:32:49;8.50;1.00
4813;DHT22;2420;51.202;8.698;2023-05-27T01:38:07;8.40;1.00
4813;DHT22;2420;51.202;8.698;2023-05-27T01:40:35;8.40;1.00
4813;DHT22;2420;51.202;8.698;2023-05-27T01:43:03;8.40;1.00
4813;DHT22;2420;51.202;8.698;2023-05-27T01:45:30;8.40;1.00
4813;DHT22;2420;51.202;8.698;2023-05-27T01:47:56;8.30;1.00
4813;DHT22;2420;51.202;8.698;2023-05-27T01:50:21;8.40;1.00
4813;DHT22;2420;51.202;8.698;2023-05-27T01:52:47;8.40;1.00
4813;DHT22;2420;51.202;8.698;2023-05-27T01:55:13;8.40;1.00
4813;DHT22;2420;51.202;8.698;2023-05-27T01:57:38;8.40;1.00
4813;DHT22;2420;51.202;8.698;2023-05-27T02:00:05;8.40;1.00
4813;DHT22;2420;51.202;8.698;2023-05-27T02:02:32;8.40;1.00
4813;DHT22;2420;51.202;8.698;2023-05-27T02:04:59;8.40;1.00
4813;DHT22;2420;51.202;8.698;2023-05-27T02:07:24;8.40;1.00
4813;DHT22;2420;51.202;8.698;2023-05-27T02:09:52;8.40;1.00
4813;DHT22;2420;51.202;8.698;2023-05-27T02:12:18;8.40;1.00
4813;DHT22;2420;51.202;8.698;2023-05-27T02:14:44;8.50;1.00
4813;DHT22;2420;51.202;8.698;2023-05-27T02:17:10;8.40;1.00
4813;DHT22;2420;51.202;8.698;2023-05-27T02:19:36;8.40;1.00
4813;DHT22;2420;51.202;8.698;2023-05-27T02:22:02;8.40;1.00
4813;DHT22;2420;51.202;8.698;2023-05-27T02:24:27;8.40;1.00
4813;DHT22;2420;51.202;8.698;2023-05-27T02:26:53;8.40;1.00
4813;DHT22;2420;51.202;8.698;2023-05-27T02:29:18;8.30;1.00
4813;DHT22;2420;51.202;8.698;2023-05-27T02:31:44;8.30;1.00
4813;DHT22;2420;51.202;8.698;2023-05-27T02:34:09;8.40;1.00
4813;DHT22;2420;51.202;8.698;2023-05-27T02:36:35;8.30;1.00
4813;DHT22;2420;51.202;8.698;2023-05-27T02:39:01;8.30;1.00
4813;DHT22;2420;51.202;8.698;2023-05-27T02:41:27;8.30;1.00
4813;DHT22;2420;51.202;8.698;2023-05-27T02:43:54;8.30;1.00
4813;DHT22;2420;51.202;8.698;2023-05-27T02:46:20;8.30;1.00
4813;DHT22;2420;51.202;8.698;2023-05-27T02:48:46;8.20;1.00
4813;DHT22;2420;51.202;8.698;2023-05-27T02:51:11;8.20;1.00
4813;DHT22;2420;51.202;8.698;2023-05-27T02:53:37;8.20;1.00
4813;DHT22;2420;51.202;8.698;2023-05-27T02:56:03;8.10;1.00
4813;DHT22;2420;51.202;8.698;2023-05-27T02:58:28;8.10;1.00
4813;DHT22;2420;51.202;8.698;2023-05-27T03:00:54;8.10;1.00
4813;DHT22;2420;51.202;8.698;2023-05-27T03:03:19;8.10;1.00
4813;DHT22;2420;51.202;8.698;2023-05-27T03:05:46;8.10;1.00
4813;DHT22;2420;51.202;8.698;2023-05-27T03:08:11;8.10;1.00
4813;DHT22;2420;51.202;8.698;2023-05-27T03:10:37;8.00;1.00
4813;DHT22;2420;51.202;8.698;2023-05-27T03:13:02;8.00;1.00
4813;DHT22;2420;51.202;8.698;2023-05-27T03:15:28;8.10;1.00
4813;DHT22;2420;51.202;8.698;2023-05-27T03:17:55;8.10;1.00
4813;DHT22;2420;51.202;8.698;2023-05-27T03:20:21;8.10;1.00
4813;DHT22;2420;51.202;8.698;2023-05-27T03:22:47;8.10;1.00
4813;DHT22;2420;51.202;8.698;2023-05-27T03:25:13;8.00;1.00
4813;DHT22;2420;51.202;8.698;2023-05-27T03:27:39;8.00;1.00
4813;DHT22;2420;51.202;8.698;2023-05-27T03:30:06;8.00;1.00
4813;DHT22;2420;51.202;8.698;2023-05-27T03:32:33;7.90;1.00
4813;DHT22;2420;51.202;8.698;2023-05-27T03:34:58;7.90;1.00
4813;DHT22;2420;51.202;8.698;2023-05-27T03:37:24;7.90;1.00
4813;DHT22;2420;51.202;8.698;2023-05-27T03:39:49;8.00;1.00
4813;DHT22;2420;51.202;8.698;2023-05-27T03:42:15;7.90;1.00
4813;DHT22;2420;51.202;8.698;2023-05-27T03:44:41;7.90;1.00
4813;DHT22;2420;51.202;8.698;2023-05-27T03:47:06;8.00;1.00
4813;DHT22;2420;51.202;8.698;2023-05-27T03:49:32;8.00;1.00
4813;DHT22;2420;51.202;8.698;2023-05-27T03:51:57;8.00;1.00
4813;DHT22;2420;51.202;8.698;2023-05-27T03:54:23;8.00;1.00
4813;DHT22;2420;51.202;8.698;2023-05-27T03:56:49;7.90;1.00
4813;DHT22;2420;51.202;8.698;2023-05-27T03:59:16;7.90;1.00
4813;DHT22;2420;51.202;8.698;2023-05-27T04:01:43;8.00;1.00
4813;DHT22;2420;51.202;8.698;2023-05-27T04:04:09;8.00;1.00
4813;DHT22;2420;51.202;8.698;2023-05-27T04:06:35;8.00;1.00
4813;DHT22;2420;51.202;8.698;2023-05-27T04:09:01;8.00;1.00
4813;DHT22;2420;51.202;8.698;2023-05-27T04:11:27;8.10;1.00
4813;DHT22;2420;51.202;8.698;2023-05-27T04:13:53;8.10;1.00
4813;DHT22;2420;51.202;8.698;2023-05-27T04:16:18;8.00;1.00
4813;DHT22;2420;51.202;8.698;2023-05-27T04:18:44;8.10;1.00
4813;DHT22;2420;51.202;8.698;2023-05-27T04:21:14;8.10;1.00
4813;DHT22;2420;51.202;8.698;2023-05-27T04:23:40;8.10;1.00
4813;DHT22;2420;51.202;8.698;2023-05-27T04:26:05;8.10;1.00
4813;DHT22;2420;51.202;8.698;2023-05-27T04:28:31;8.20;1.00
4813;DHT22;2420;51.202;8.698;2023-05-27T04:30:57;8.30;1.00
4813;DHT22;2420;51.202;8.698;2023-05-27T04:33:22;8.40;1.00
4813;DHT22;2420;51.202;8.698;2023-05-27T04:35:48;8.40;1.00
4813;DHT22;2420;51.202;8.698;2023-05-27T04:38:14;8.50;1.00
4813;DHT22;2420;51.202;8.698;2023-05-27T04:40:44;8.60;1.00
4813;DHT22;2420;51.202;8.698;2023-05-27T04:43:21;8.70;1.00
4813;DHT22;2420;51.202;8.698;2023-05-27T04:45:47;8.80;1.00
4813;DHT22;2420;51.202;8.698;2023-05-27T04:48:13;8.80;1.00
4813;DHT22;2420;51.202;8.698;2023-05-27T04:50:39;8.90;1.00
4813;DHT22;2420;51.202;8.698;2023-05-27T04:53:06;8.90;1.00
4813;DHT22;2420;51.202;8.698;2023-05-27T04:55:32;9.00;1.00
4813;DHT22;2420;51.202;8.698;2023-05-27T04:57:58;9.10;1.00
4813;DHT22;2420;51.202;8.698;2023-05-27T05:00:23;9.30;1.00
4813;DHT22;2420;51.202;8.698;2023-05-27T05:03:04;9.40;1.00
4813;DHT22;2420;51.202;8.698;2023-05-27T05:05:31;9.70;1.00
4813;DHT22;2420;51.202;8.698;2023-05-27T05:07:57;9.90;1.00
4813;DHT22;2420;51.202;8.698;2023-05-27T05:10:23;10.30;1.00
4813;DHT22;2420;51.202;8.698;2023-05-27T05:12:48;10.70;1.00
4813;DHT22;2420;51.202;8.698;2023-05-27T05:15:14;11.10;1.00
4813;DHT22;2420;51.202;8.698;2023-05-27T05:17:40;11.40;1.00
4813;DHT22;2420;51.202;8.698;2023-05-27T05:20:05;11.60;1.00
4813;DHT22;2420;51.202;8.698;2023-05-27T05:22:32;12.00;1.00
4813;DHT22;2420;51.202;8.698;2023-05-27T05:24:57;12.20;1.00
4813;DHT22;2420;51.202;8.698;2023-05-27T05:27:23;12.40;1.00
4813;DHT22;2420;51.202;8.698;2023-05-27T05:29:50;12.70;1.00
4813;DHT22;2420;51.202;8.698;2023-05-27T05:32:18;12.90;1.00
4813;DHT22;2420;51.202;8.698;2023-05-27T05:34:44;13.00;1.00
4813;DHT22;2420;51.202;8.698;2023-05-27T05:37:09;13.10;1.00
4813;DHT22;2420;51.202;8.698;2023-05-27T05:39:36;13.00;1.00
4813;DHT22;2420;51.202;8.698;2023-05-27T05:42:02;12.90;1.00
4813;DHT22;2420;51.202;8.698;2023-05-27T05:44:28;12.90;1.00
4813;DHT22;2420;51.202;8.698;2023-05-27T05:46:54;12.90;1.00
4813;DHT22;2420;51.202;8.698;2023-05-27T05:49:19;12.80;1.00
4813;DHT22;2420;51.202;8.698;2023-05-27T05:51:45;12.60;1.00
4813;DHT22;2420;51.202;8.698;2023-05-27T05:54:10;12.80;1.00
4813;DHT22;2420;51.202;8.698;2023-05-27T05:56:36;12.80;1.00
4813;DHT22;2420;51.202;8.698;2023-05-27T05:59:02;12.80;1.00
4813;DHT22;2420;51.202;8.698;2023-05-27T06:01:27;12.90;1.00
4813;DHT22;2420;51.202;8.698;2023-05-27T06:03:54;12.60;1.00
4813;DHT22;2420;51.202;8.698;2023-05-27T06:06:20;12.60;1.00
4813;DHT22;2420;51.202;8.698;2023-05-27T06:08:45;12.50;1.00
4813;DHT22;2420;51.202;8.698;2023-05-27T06:11:11;12.40;1.00
4813;DHT22;2420;51.202;8.698;2023-05-27T06:13:38;12.50;1.00
4813;DHT22;2420;51.202;8.698;2023-05-27T06:16:03;12.50;1.00
4813;DHT22;2420;51.202;8.698;2023-05-27T06:18:29;12.40;1.00
4813;DHT22;2420;51.202;8.698;2023-05-27T06:20:54;12.60;1.00
4813;DHT22;2420;51.202;8.698;2023-05-27T06:23:20;12.70;1.00
4813;DHT22;2420;51.202;8.698;2023-05-27T06:25:46;12.70;1.00
4813;DHT22;2420;51.202;8.698;2023-05-27T06:28:11;12.70;1.00
4813;DHT22;2420;51.202;8.698;2023-05-27T06:30:37;12.80;1.00
4813;DHT22;2420;51.202;8.698;2023-05-27T06:33:03;12.90;1.00
4813;DHT22;2420;51.202;8.698;2023-05-27T06:35:29;13.00;1.00
4813;DHT22;2420;51.202;8.698;2023-05-27T06:37:54;13.10;1.00
4813;DHT22;2420;51.202;8.698;2023-05-27T06:40:20;13.00;1.00
4813;DHT22;2420;51.202;8.698;2023-05-27T06:42:46;12.90;1.00
4813;DHT22;2420;51.202;8.698;2023-05-27T06:45:12;13.00;1.00
4813;DHT22;2420;51.202;8.698;2023-05-27T06:47:38;12.90;1.00
4813;DHT22;2420;51.202;8.698;2023-05-27T06:50:04;12.80;1.00
4813;DHT22;2420;51.202;8.698;2023-05-27T06:52:30;12.80;1.00
4813;DHT22;2420;51.202;8.698;2023-05-27T06:54:55;12.70;1.00
4813;DHT22;2420;51.202;8.698;2023-05-27T06:57:21;12.80;1.00
4813;DHT22;2420;51.202;8.698;2023-05-27T06:59:46;12.60;1.00
4813;DHT22;2420;51.202;8.698;2023-05-27T07:02:12;12.60;1.00
4813;DHT22;2420;51.202;8.698;2023-05-27T07:04:38;12.90;1.00
4813;DHT22;2420;51.202;8.698;2023-05-27T07:07:03;13.30;1.00
4813;DHT22;2420;51.202;8.698;2023-05-27T07:09:29;13.50;1.00
4813;DHT22;2420;51.202;8.698;2023-05-27T07:11:54;13.70;1.00
4813;DHT22;2420;51.202;8.698;2023-05-27T07:14:20;13.70;1.00
4813;DHT22;2420;51.202;8.698;2023-05-27T07:16:46;13.30;1.00
4813;DHT22;2420;51.202;8.698;2023-05-27T07:19:13;13.20;1.00
4813;DHT22;2420;51.202;8.698;2023-05-27T07:21:39;13.20;1.00
4813;DHT22;2420;51.202;8.698;2023-05-27T07:24:05;13.50;1.00
4813;DHT22;2420;51.202;8.698;2023-05-27T07:26:31;13.60;1.00
4813;DHT22;2420;51.202;8.698;2023-05-27T07:29:00;13.90;1.00
4813;DHT22;2420;51.202;8.698;2023-05-27T07:31:27;14.00;1.00
4813;DHT22;2420;51.202;8.698;2023-05-27T07:33:53;14.30;1.00
4813;DHT22;2420;51.202;8.698;2023-05-27T07:36:19;14.10;1.00
4813;DHT22;2420;51.202;8.698;2023-05-27T07:38:45;14.20;1.00
4813;DHT22;2420;51.202;8.698;2023-05-27T07:41:11;14.30;1.00
4813;DHT22;2420;51.202;8.698;2023-05-27T07:43:36;14.40;1.00
4813;DHT22;2420;51.202;8.698;2023-05-27T07:46:02;14.60;1.00
4813;DHT22;2420;51.202;8.698;2023-05-27T07:48:28;14.90;1.00
4813;DHT22;2420;51.202;8.698;2023-05-27T07:50:54;15.10;1.00
4813;DHT22;2420;51.202;8.698;2023-05-27T07:53:20;15.00;1.00
4813;DHT22;2420;51.202;8.698;2023-05-27T07:55:45;14.80;1.00
4813;DHT22;2420;51.202;8.698;2023-05-27T07:58:11;14.60;1.00
4813;DHT22;2420;51.202;8.698;2023-05-27T08:00:36;14.80;1.00
4813;DHT22;2420;51.202;8.698;2023-05-27T08:03:02;14.90;1.00
4813;DHT22;2420;51.202;8.698;2023-05-27T08:05:28;15.10;1.00
4813;DHT22;2420;51.202;8.698;2023-05-27T08:07:53;15.20;1.00
4813;DHT22;2420;51.202;8.698;2023-05-27T08:10:19;14.90;1.00
4813;DHT22;2420;51.202;8.698;2023-05-27T08:12:44;15.00;1.00
4813;DHT22;2420;51.202;8.698;2023-05-27T08:15:16;15.40;1.00
4813;DHT22;2420;51.202;8.698;2023-05-27T08:17:42;15.90;1.00
4813;DHT22;2420;51.202;8.698;2023-05-27T08:20:09;16.10;1.00
4813;DHT22;2420;51.202;8.698;2023-05-27T08:22:35;16.40;1.00
4813;DHT22;2420;51.202;8.698;2023-05-27T08:25:00;16.00;1.00
4813;DHT22;2420;51.202;8.698;2023-05-27T08:28:05;15.90;1.00
4813;DHT22;2420;51.202;8.698;2023-05-27T08:30:32;15.50;1.00
4813;DHT22;2420;51.202;8.698;2023-05-27T08:32:58;15.50;1.00
4813;DHT22;2420;51.202;8.698;2023-05-27T08:35:24;15.80;1.00
4813;DHT22;2420;51.202;8.698;2023-05-27T08:37:49;15.90;1.00
4813;DHT22;2420;51.202;8.698;2023-05-27T08:40:17;15.80;1.00
4813;DHT22;2420;51.202;8.698;2023-05-27T08:42:44;15.70;1.00
4813;DHT22;2420;51.202;8.698;2023-05-27T08:45:10;15.90;1.00
4813;DHT22;2420;51.202;8.698;2023-05-27T08:47:38;16.20;1.00
4813;DHT22;2420;51.202;8.698;2023-05-27T08:50:04;16.30;1.00
4813;DHT22;2420;51.202;8.698;2023-05-27T08:52:30;16.40;1.00
4813;DHT22;2420;51.202;8.698;2023-05-27T08:55:00;16.60;1.00
4813;DHT22;2420;51.202;8.698;2023-05-27T08:57:30;16.70;1.00
4813;DHT22;2420;51.202;8.698;2023-05-27T08:59:57;16.20;1.00
4813;DHT22;2420;51.202;8.698;2023-05-27T09:02:23;16.20;1.00
4813;DHT22;2420;51.202;8.698;2023-05-27T09:04:50;16.00;1.00
4813;DHT22;2420;51.202;8.698;2023-05-27T09:07:16;16.10;1.00
4813;DHT22;2420;51.202;8.698;2023-05-27T09:09:43;16.50;1.00
4813;DHT22;2420;51.202;8.698;2023-05-27T09:12:25;16.70;1.00
4813;DHT22;2420;51.202;8.698;2023-05-27T09:14:52;16.70;1.00
4813;DHT22;2420;51.202;8.698;2023-05-27T09:17:23;16.90;1.00
4813;DHT22;2420;51.202;8.698;2023-05-27T09:19:53;16.40;1.00
4813;DHT22;2420;51.202;8.698;2023-05-27T09:22:31;16.10;1.00
4813;DHT22;2420;51.202;8.698;2023-05-27T09:24:57;16.40;1.00
4813;DHT22;2420;51.202;8.698;2023-05-27T09:27:31;16.30;1.00
4813;DHT22;2420;51.202;8.698;2023-05-27T09:29:57;16.60;1.00
4813;DHT22;2420;51.202;8.698;2023-05-27T09:32:27;17.10;1.00
4813;DHT22;2420;51.202;8.698;2023-05-27T09:34:54;17.50;1.00
4813;DHT22;2420;51.202;8.698;2023-05-27T09:37:30;17.50;1.00
4813;DHT22;2420;51.202;8.698;2023-05-27T09:40:05;17.10;1.00
4813;DHT22;2420;51.202;8.698;2023-05-27T09:42:46;16.80;1.00
4813;DHT22;2420;51.202;8.698;2023-05-27T09:45:21;17.00;1.00
4813;DHT22;2420;51.202;8.698;2023-05-27T09:47:48;16.90;1.00
4813;DHT22;2420;51.202;8.698;2023-05-27T09:50:14;17.10;1.00
4813;DHT22;2420;51.202;8.698;2023-05-27T09:52:40;17.40;1.00
4813;DHT22;2420;51.202;8.698;2023-05-27T09:55:11;17.50;1.00
4813;DHT22;2420;51.202;8.698;2023-05-27T09:57:38;17.40;1.00
4813;DHT22;2420;51.202;8.698;2023-05-27T10:00:05;17.60;1.00
4813;DHT22;2420;51.202;8.698;2023-05-27T10:02:37;17.70;1.00
4813;DHT22;2420;51.202;8.698;2023-05-27T10:05:05;17.60;1.00
4813;DHT22;2420;51.202;8.698;2023-05-27T10:07:36;17.50;1.00
4813;DHT22;2420;51.202;8.698;2023-05-27T10:10:02;17.90;1.00
4813;DHT22;2420;51.202;8.698;2023-05-27T10:12:28;18.30;1.00
4813;DHT22;2420;51.202;8.698;2023-05-27T10:14:55;18.60;1.00
4813;DHT22;2420;51.202;8.698;2023-05-27T10:17:21;18.50;1.00
4813;DHT22;2420;51.202;8.698;2023-05-27T10:19:54;18.30;1.00
4813;DHT22;2420;51.202;8.698;2023-05-27T10:22:22;18.00;1.00
4813;DHT22;2420;51.202;8.698;2023-05-27T10:24:48;17.90;1.00
4813;DHT22;2420;51.202;8.698;2023-05-27T10:27:19;18.00;1.00
4813;DHT22;2420;51.202;8.698;2023-05-27T10:29:57;18.20;1.00
4813;DHT22;2420;51.202;8.698;2023-05-27T10:32:22;18.50;1.00
4813;DHT22;2420;51.202;8.698;2023-05-27T10:34:48;18.50;1.00
4813;DHT22;2420;51.202;8.698;2023-05-27T10:37:19;18.60;1.00
4813;DHT22;2420;51.202;8.698;2023-05-27T10:39:56;18.80;1.00
4813;DHT22;2420;51.202;8.698;2023-05-27T10:42:22;18.80;1.00
4813;DHT22;2420;51.202;8.698;2023-05-27T10:45:10;19.00;1.00
4813;DHT22;2420;51.202;8.698;2023-05-27T10:47:37;19.20;1.00
4813;DHT22;2420;51.202;8.698;2023-05-27T10:50:13;19.10;1.00
4813;DHT22;2420;51.202;8.698;2023-05-27T10:52:40;19.10;1.00
4813;DHT22;2420;51.202;8.698;2023-05-27T10:55:06;19.10;1.00
4813;DHT22;2420;51.202;8.698;2023-05-27T10:57:32;19.20;1.00
4813;DHT22;2420;51.202;8.698;2023-05-27T11:00:02;18.90;1.00
4813;DHT22;2420;51.202;8.698;2023-05-27T11:02:36;18.50;1.00
4813;DHT22;2420;51.202;8.698;2023-05-27T11:05:11;18.90;1.00
4813;DHT22;2420;51.202;8.698;2023-05-27T11:07:37;18.80;1.00
4813;DHT22;2420;51.202;8.698;2023-05-27T11:10:04;18.80;1.00
4813;DHT22;2420;51.202;8.698;2023-05-27T11:12:32;19.10;1.00
4813;DHT22;2420;51.202;8.698;2023-05-27T11:14:57;19.00;1.00
4813;DHT22;2420;51.202;8.698;2023-05-27T11:17:23;19.30;1.00
4813;DHT22;2420;51.202;8.698;2023-05-27T11:19:50;19.40;1.00
4813;DHT22;2420;51.202;8.698;2023-05-27T11:22:16;19.10;1.00
4813;DHT22;2420;51.202;8.698;2023-05-27T11:24:43;19.00;1.00
4813;DHT22;2420;51.202;8.698;2023-05-27T11:27:14;18.90;1.00
4813;DHT22;2420;51.202;8.698;2023-05-27T11:29:49;19.40;1.00
4813;DHT22;2420;51.202;8.698;2023-05-27T11:32:17;19.50;1.00
4813;DHT22;2420;51.202;8.698;2023-05-27T11:34:47;19.70;1.00
4813;DHT22;2420;51.202;8.698;2023-05-27T11:37:13;19.60;1.00
4813;DHT22;2420;51.202;8.698;2023-05-27T11:39:50;19.30;1.00
4813;DHT22;2420;51.202;8.698;2023-05-27T11:42:23;19.30;1.00
4813;DHT22;2420;51.202;8.698;2023-05-27T11:44:53;19.20;1.00
4813;DHT22;2420;51.202;8.698;2023-05-27T11:47:19;19.50;1.00
4813;DHT22;2420;51.202;8.698;2023-05-27T11:49:49;19.80;1.00
4813;DHT22;2420;51.202;8.698;2023-05-27T11:52:14;19.80;1.00
4813;DHT22;2420;51.202;8.698;2023-05-27T11:54:40;20.20;1.00
4813;DHT22;2420;51.202;8.698;2023-05-27T11:57:06;20.30;1.00
4813;DHT22;2420;51.202;8.698;2023-05-27T11:59:34;20.50;1.00
4813;DHT22;2420;51.202;8.698;2023-05-27T12:02:00;20.40;1.00
4813;DHT22;2420;51.202;8.698;2023-05-27T12:04:25;20.60;1.00
4813;DHT22;2420;51.202;8.698;2023-05-27T12:06:51;20.50;1.00
4813;DHT22;2420;51.202;8.698;2023-05-27T12:09:16;20.50;1.00
4813;DHT22;2420;51.202;8.698;2023-05-27T12:11:42;20.50;1.00
4813;DHT22;2420;51.202;8.698;2023-05-27T12:14:08;20.40;1.00
4813;DHT22;2420;51.202;8.698;2023-05-27T12:16:33;19.90;1.00
4813;DHT22;2420;51.202;8.698;2023-05-27T12:18:59;19.70;1.00
4813;DHT22;2420;51.202;8.698;2023-05-27T12:21:25;19.90;1.00
4813;DHT22;2420;51.202;8.698;2023-05-27T12:23:51;19.40;1.00
4813;DHT22;2420;51.202;8.698;2023-05-27T12:26:17;19.70;1.00
4813;DHT22;2420;51.202;8.698;2023-05-27T12:28:44;19.60;1.00
4813;DHT22;2420;51.202;8.698;2023-05-27T12:31:09;19.70;1.00
4813;DHT22;2420;51.202;8.698;2023-05-27T12:33:35;19.80;1.00
4813;DHT22;2420;51.202;8.698;2023-05-27T12:36:02;20.10;1.00
4813;DHT22;2420;51.202;8.698;2023-05-27T12:38:28;20.30;1.00
4813;DHT22;2420;51.202;8.698;2023-05-27T12:40:53;20.10;1.00
4813;DHT22;2420;51.202;8.698;2023-05-27T12:43:21;20.10;1.00
4813;DHT22;2420;51.202;8.698;2023-05-27T12:45:48;20.30;1.00
4813;DHT22;2420;51.202;8.698;2023-05-27T12:48:14;20.10;1.00
4813;DHT22;2420;51.202;8.698;2023-05-27T12:50:40;20.10;1.00
4813;DHT22;2420;51.202;8.698;2023-05-27T12:53:07;20.30;1.00
4813;DHT22;2420;51.202;8.698;2023-05-27T12:55:33;20.70;1.00
4813;DHT22;2420;51.202;8.698;2023-05-27T12:57:59;20.20;1.00
4813;DHT22;2420;51.202;8.698;2023-05-27T13:00:24;20.20;1.00
4813;DHT22;2420;51.202;8.698;2023-05-27T13:02:50;20.40;1.00
4813;DHT22;2420;51.202;8.698;2023-05-27T13:05:16;20.20;1.00
4813;DHT22;2420;51.202;8.698;2023-05-27T13:07:54;20.20;1.00
4813;DHT22;2420;51.202;8.698;2023-05-27T13:10:20;20.30;1.00
4813;DHT22;2420;51.202;8.698;2023-05-27T13:12:47;20.20;1.00
4813;DHT22;2420;51.202;8.698;2023-05-27T13:15:13;20.10;1.00
4813;DHT22;2420;51.202;8.698;2023-05-27T13:17:39;20.10;1.00
4813;DHT22;2420;51.202;8.698;2023-05-27T13:20:05;19.90;1.00
4813;DHT22;2420;51.202;8.698;2023-05-27T13:22:31;19.90;1.00
4813;DHT22;2420;51.202;8.698;2023-05-27T13:24:56;20.00;1.00
4813;DHT22;2420;51.202;8.698;2023-05-27T13:27:22;20.10;1.00
4813;DHT22;2420;51.202;8.698;2023-05-27T13:29:48;20.00;1.00
4813;DHT22;2420;51.202;8.698;2023-05-27T13:32:13;19.90;1.00
4813;DHT22;2420;51.202;8.698;2023-05-27T13:34:39;19.90;1.00
4813;DHT22;2420;51.202;8.698;2023-05-27T13:37:05;19.90;1.00
4813;DHT22;2420;51.202;8.698;2023-05-27T13:39:31;20.30;1.00
4813;DHT22;2420;51.202;8.698;2023-05-27T13:41:57;20.20;1.00
4813;DHT22;2420;51.202;8.698;2023-05-27T13:44:23;20.20;1.00
4813;DHT22;2420;51.202;8.698;2023-05-27T13:46:50;20.20;1.00
4813;DHT22;2420;51.202;8.698;2023-05-27T13:49:15;20.50;1.00
4813;DHT22;2420;51.202;8.698;2023-05-27T13:51:45;20.60;1.00
4813;DHT22;2420;51.202;8.698;2023-05-27T13:54:11;20.60;1.00
4813;DHT22;2420;51.202;8.698;2023-05-27T13:56:38;20.50;1.00
4813;DHT22;2420;51.202;8.698;2023-05-27T13:59:03;20.90;1.00
4813;DHT22;2420;51.202;8.698;2023-05-27T14:01:31;21.00;1.00
4813;DHT22;2420;51.202;8.698;2023-05-27T14:03:56;21.10;1.00
4813;DHT22;2420;51.202;8.698;2023-05-27T14:06:22;21.20;1.00
4813;DHT22;2420;51.202;8.698;2023-05-27T14:08:48;20.70;1.00
4813;DHT22;2420;51.202;8.698;2023-05-27T14:11:14;20.80;1.00
4813;DHT22;2420;51.202;8.698;2023-05-27T14:13:39;20.90;1.00
4813;DHT22;2420;51.202;8.698;2023-05-27T14:16:05;20.90;1.00
4813;DHT22;2420;51.202;8.698;2023-05-27T14:18:31;20.90;1.00
4813;DHT22;2420;51.202;8.698;2023-05-27T14:20:56;20.50;1.00
4813;DHT22;2420;51.202;8.698;2023-05-27T14:23:22;20.50;1.00
4813;DHT22;2420;51.202;8.698;2023-05-27T14:25:48;20.70;1.00
4813;DHT22;2420;51.202;8.698;2023-05-27T14:28:13;20.50;1.00
4813;DHT22;2420;51.202;8.698;2023-05-27T14:30:39;20.50;1.00
4813;DHT22;2420;51.202;8.698;2023-05-27T14:33:05;20.60;1.00
4813;DHT22;2420;51.202;8.698;2023-05-27T14:35:38;20.70;1.00
4813;DHT22;2420;51.202;8.698;2023-05-27T14:38:05;20.80;1.00
4813;DHT22;2420;51.202;8.698;2023-05-27T14:40:31;20.60;1.00
4813;DHT22;2420;51.202;8.698;2023-05-27T14:42:57;20.70;1.00
4813;DHT22;2420;51.202;8.698;2023-05-27T14:45:22;20.60;1.00
4813;DHT22;2420;51.202;8.698;2023-05-27T14:47:49;20.60;1.00
4813;DHT22;2420;51.202;8.698;2023-05-27T14:50:22;20.50;1.00
4813;DHT22;2420;51.202;8.698;2023-05-27T14:52:49;20.50;1.00
4813;DHT22;2420;51.202;8.698;2023-05-27T14:55:15;20.70;1.00
4813;DHT22;2420;51.202;8.698;2023-05-27T14:57:40;20.50;1.00
4813;DHT22;2420;51.202;8.698;2023-05-27T15:00:07;20.60;1.00
4813;DHT22;2420;51.202;8.698;2023-05-27T15:02:35;20.60;1.00
4813;DHT22;2420;51.202;8.698;2023-05-27T15:05:05;20.50;1.00
4813;DHT22;2420;51.202;8.698;2023-05-27T15:07:32;20.40;1.00
4813;DHT22;2420;51.202;8.698;2023-05-27T15:09:58;20.40;1.00
4813;DHT22;2420;51.202;8.698;2023-05-27T15:12:24;20.50;1.00
4813;DHT22;2420;51.202;8.698;2023-05-27T15:14:49;20.60;1.00
4813;DHT22;2420;51.202;8.698;2023-05-27T15:17:15;20.40;1.00
4813;DHT22;2420;51.202;8.698;2023-05-27T15:19:41;20.20;1.00
4813;DHT22;2420;51.202;8.698;2023-05-27T15:22:06;20.20;1.00
4813;DHT22;2420;51.202;8.698;2023-05-27T15:24:33;20.10;1.00
4813;DHT22;2420;51.202;8.698;2023-05-27T15:26:59;20.10;1.00
4813;DHT22;2420;51.202;8.698;2023-05-27T15:29:24;20.00;1.00
4813;DHT22;2420;51.202;8.698;2023-05-27T15:31:50;20.10;1.00
4813;DHT22;2420;51.202;8.698;2023-05-27T15:34:16;20.10;1.00
4813;DHT22;2420;51.202;8.698;2023-05-27T15:36:41;20.20;1.00
4813;DHT22;2420;51.202;8.698;2023-05-27T15:39:07;20.00;1.00
4813;DHT22;2420;51.202;8.698;2023-05-27T15:41:33;20.00;1.00
4813;DHT22;2420;51.202;8.698;2023-05-27T15:43:58;20.10;1.00
4813;DHT22;2420;51.202;8.698;2023-05-27T15:46:24;19.90;1.00
4813;DHT22;2420;51.202;8.698;2023-05-27T15:48:50;19.90;1.00
4813;DHT22;2420;51.202;8.698;2023-05-27T15:51:16;19.90;1.00
4813;DHT22;2420;51.202;8.698;2023-05-27T15:53:41;19.90;1.00
4813;DHT22;2420;51.202;8.698;2023-05-27T15:56:07;19.80;1.00
4813;DHT22;2420;51.202;8.698;2023-05-27T15:58:32;19.70;1.00
4813;DHT22;2420;51.202;8.698;2023-05-27T16:00:58;19.80;1.00
4813;DHT22;2420;51.202;8.698;2023-05-27T16:03:23;19.80;1.00
4813;DHT22;2420;51.202;8.698;2023-05-27T16:05:49;19.80;1.00
4813;DHT22;2420;51.202;8.698;2023-05-27T16:08:15;19.80;1.00
4813;DHT22;2420;51.202;8.698;2023-05-27T16:10:52;19.80;1.00
4813;DHT22;2420;51.202;8.698;2023-05-27T16:13:18;19.70;1.00
4813;DHT22;2420;51.202;8.698;2023-05-27T16:15:44;19.70;1.00
4813;DHT22;2420;51.202;8.698;2023-05-27T16:18:10;19.70;1.00
4813;DHT22;2420;51.202;8.698;2023-05-27T16:20:37;19.70;1.00
4813;DHT22;2420;51.202;8.698;2023-05-27T16:23:02;19.50;1.00